CA-0442 weather

Little's Farm
Ontario, Canada

Public forecast

Using degrees Celsius for public forecast. Weather courtesy of forecast.io.

Closest aviation weather report (METAR) to Little's Farm

Closest report is Lester B. Pearson International Airport, 10.0 nm (18.5 km) SE. Retrieved 2019/11/11 20:10 UTC (14 minutes ago):

CYYZ 112010Z 07018G23KT 1 1/2SM -SN VV011 M04/M06 A3013 RMK SN8 SLP212

Closest aviation forecast (TAF) to Little's Farm

Closest forecast is Lester B. Pearson International Airport, 10.0 nm (18.5 km) SE. Retrieved 2019/11/11 21:40 UTC (0 seconds ago):

TAF CYYZ 112038Z 1121/1224 05015G25KT 3/4SM -SN VV007 TEMPO 1121/1205 2SM -SN OVC015 BECMG 1201/1203 03012KT FM120500 02012KT 11/2SM -SN OVC015 TEMPO 1205/1208 P6SM NSW BKN025 OVC050 FM120800 36012KT P6SM FEW025 OVC060 FM121100 34012KT P6SM BKN090 BECMG 1214/1216 34015G25KT FM122000 32015KT P6SM SKC RMK NXT FCST BY 120000Z